Time;durP1;ratioP1;P1;durP2;ratioP2;P2;SDS_P1;SDS_P2;PMS_P1;PMS_P2;Temp;Humidity;BMP_temperature;BMP_pressure;BME280_temperature;BME280_humidity;BME280_pressure;Samples;Min_cycle;Max_cycle;Signal;HPM_P1;HPM_P2
2022/06/09 00:00:08;;;;;;;20.07;5.90;;;;;;;12.64;100.00;100595.56;173374;28;883;-67
2022/06/09 00:00:15;;;;;;;22.17;6.07;;;;;;;12.66;100.00;100599.78;172669;28;1148;-67
2022/06/09 00:00:21;;;;;;;22.23;6.25;;;;;;;12.64;100.00;100599.03;172684;28;935;-66
2022/06/09 00:00:28;;;;;;;22.10;6.35;;;;;;;12.65;100.00;100597.25;172674;28;1002;-67
2022/06/09 00:00:34;;;;;;;22.58;6.32;;;;;;;12.68;100.00;100599.72;172690;28;974;-67
2022/06/09 00:00:43;;;;;;;20.95;6.18;;;;;;;12.70;100.00;100597.88;172701;28;876;-67
2022/06/09 00:01:08;;;;;;;18.67;5.87;;;;;;;12.73;100.00;100592.47;172728;28;1081;-67
2022/06/09 00:01:27;;;;;;;17.83;5.68;;;;;;;12.77;100.00;100604.44;172651;28;1247;-67
2022/06/09 00:01:49;;;;;;;18.75;6.05;;;;;;;12.78;100.00;100598.28;171231;28;1505;-67
2022/06/09 00:02:03;;;;;;;20.88;6.21;;;;;;;12.81;100.00;100605.13;171276;28;1249;-67
2022/06/09 00:02:09;;;;;;;21.83;6.32;;;;;;;12.80;100.00;100600.81;171529;28;1214;-67
2022/06/09 00:02:14;;;;;;;20.33;6.13;;;;;;;12.80;100.00;100608.66;172037;28;1081;-67
2022/06/09 00:02:20;;;;;;;19.15;5.93;;;;;;;12.72;100.00;100598.59;172038;28;975;-67
2022/06/09 00:02:25;;;;;;;19.80;5.67;;;;;;;12.68;100.00;100604.94;171995;28;1014;-67
2022/06/09 00:02:30;;;;;;;19.38;5.63;;;;;;;12.70;100.00;100603.09;171997;28;1038;-67
2022/06/09 00:02:44;;;;;;;19.30;5.53;;;;;;;12.71;100.00;100604.78;172032;28;856;-66
2022/06/09 00:02:55;;;;;;;19.80;5.61;;;;;;;12.65;100.00;100599.88;172005;28;1238;-66
2022/06/09 00:03:11;;;;;;;22.29;5.97;;;;;;;12.71;100.00;100604.78;171981;28;1240;-67
2022/06/09 00:03:35;;;;;;;23.08;6.00;;;;;;;12.69;100.00;100602.25;172037;28;1239;-67
2022/06/09 00:03:47;;;;;;;21.86;5.95;;;;;;;12.68;100.00;100607.56;172074;28;1247;-66
2022/06/09 00:04:13;;;;;;;24.42;6.39;;;;;;;12.66;100.00;100607.63;172008;28;1234;-67
2022/06/09 00:04:31;;;;;;;22.01;6.11;;;;;;;12.74;100.00;100599.38;172052;28;1241;-67
2022/06/09 00:04:39;;;;;;;19.41;5.61;;;;;;;12.78;100.00;100606.13;172039;28;1246;-67
2022/06/09 00:04:45;;;;;;;19.79;5.80;;;;;;;12.79;100.00;100604.38;171912;28;1329;-67
2022/06/09 00:04:50;;;;;;;19.10;5.68;;;;;;;12.80;100.00;100604.25;172038;28;939;-67
2022/06/09 00:04:58;;;;;;;20.03;5.77;;;;;;;12.81;100.00;100603.34;172001;28;899;-66
2022/06/09 00:05:06;;;;;;;21.30;6.05;;;;;;;12.81;100.00;100603.34;172020;28;1149;-67
2022/06/09 00:05:13;;;;;;;20.67;5.98;;;;;;;12.81;100.00;100607.72;172034;28;973;-67
2022/06/09 00:05:21;;;;;;;18.90;6.00;;;;;;;12.82;100.00;100606.78;172094;28;868;-67
2022/06/09 00:05:28;;;;;;;18.37;6.05;;;;;;;12.71;100.00;100604.78;171986;28;981;-67
2022/06/09 00:05:34;;;;;;;16.87;5.87;;;;;;;12.69;100.00;100604.03;172055;28;884;-67
2022/06/09 00:05:40;;;;;;;17.47;5.90;;;;;;;12.70;100.00;100606.53;171984;28;1090;-67
2022/06/09 00:05:46;;;;;;;18.26;5.88;;;;;;;12.65;100.00;100605.09;171993;28;1089;-67
2022/06/09 00:05:52;;;;;;;18.63;5.88;;;;;;;12.59;100.00;100612.38;171238;28;1718;-67
2022/06/09 00:05:57;;;;;;;17.90;5.57;;;;;;;12.58;100.00;100612.47;171337;28;860;-67
2022/06/09 00:06:09;;;;;;;18.20;5.60;;;;;;;12.64;100.00;100604.28;171276;28;956;-67
2022/06/09 00:06:16;;;;;;;18.90;5.53;;;;;;;12.62;100.00;100600.88;171288;28;1236;-67
2022/06/09 00:06:26;;;;;;;19.37;5.67;;;;;;;12.58;100.00;100600.22;171345;28;884;-67
2022/06/09 00:06:41;;;;;;;20.38;5.79;;;;;;;12.53;100.00;100612.72;171324;28;1152;-67
2022/06/09 00:06:59;;;;;;;21.30;5.85;;;;;;;12.58;100.00;100613.31;171916;28;1240;-67
2022/06/09 00:07:15;;;;;;;21.90;5.93;;;;;;;12.56;100.00;100609.91;172033;28;1254;-67
2022/06/09 00:07:21;;;;;;;21.54;6.05;;;;;;;12.64;100.00;100606.03;171953;28;1224;-67
2022/06/09 00:07:27;;;;;;;21.52;6.00;;;;;;;12.67;100.00;100605.88;171993;28;911;-67
2022/06/09 00:07:34;;;;;;;20.17;5.97;;;;;;;12.69;100.00;100604.88;171995;28;943;-67
2022/06/09 00:07:41;;;;;;;20.56;5.98;;;;;;;12.72;100.00;100611.69;171995;28;1069;-67
2022/06/09 00:07:49;;;;;;;20.23;6.20;;;;;;;12.75;100.00;100611.53;172053;28;800;-67
2022/06/09 00:07:58;;;;;;;20.07;6.23;;;;;;;12.77;100.00;100612.31;172101;28;966;-67
2022/06/09 00:08:06;;;;;;;20.97;6.19;;;;;;;12.69;100.00;100606.66;171998;28;1083;-67
2022/06/09 00:08:12;;;;;;;20.00;6.13;;;;;;;12.67;100.00;100604.13;172505;28;1219;-67
2022/06/09 00:08:19;;;;;;;20.95;6.18;;;;;;;12.71;100.00;100610.00;172742;28;906;-66
2022/06/09 00:08:27;;;;;;;20.00;6.16;;;;;;;12.72;100.00;100606.47;171898;28;1144;-66
2022/06/09 00:08:33;;;;;;;21.59;6.47;;;;;;;12.72;100.00;100606.47;171979;28;1086;-67
2022/06/09 00:08:44;;;;;;;22.13;6.50;;;;;;;12.75;100.00;100606.31;172007;28;979;-67
2022/06/09 00:08:53;;;;;;;21.67;6.46;;;;;;;12.78;100.00;100608.75;172015;28;1248;-66
2022/06/09 00:09:02;;;;;;;19.84;6.36;;;;;;;12.80;100.00;100603.44;171995;28;1176;-67
2022/06/09 00:09:08;;;;;;;19.40;6.20;;;;;;;12.82;100.00;100612.88;171992;28;1061;-67
2022/06/09 00:09:19;;;;;;;20.40;6.43;;;;;;;12.81;100.00;100611.22;171989;28;920;-67
2022/06/09 00:09:34;;;;;;;20.47;6.30;;;;;;;12.77;100.00;100609.69;172007;28;1243;-67
2022/06/09 00:09:47;;;;;;;22.66;6.43;;;;;;;12.80;100.00;100604.25;171983;28;1241;-66
2022/06/09 00:10:05;;;;;;;23.90;6.43;;;;;;;12.83;100.00;100609.34;171966;28;1242;-67
2022/06/09 00:10:23;;;;;;;22.46;6.36;;;;;;;12.76;100.00;100610.59;171945;28;1404;-67
2022/06/09 00:10:34;;;;;;;19.40;6.20;;;;;;;12.76;100.00;100613.22;172024;28;1262;-67
2022/06/09 00:10:49;;;;;;;18.35;6.04;;;;;;;12.72;100.00;100611.69;173239;28;1491;-68
2022/06/09 00:11:01;;;;;;;19.84;6.06;;;;;;;12.69;100.00;100611.88;173368;28;1264;-66
2022/06/09 00:11:12;;;;;;;22.70;6.29;;;;;;;12.69;100.00;100614.50;173364;28;1242;-67
2022/06/09 00:11:24;;;;;;;23.39;6.25;;;;;;;12.68;100.00;100604.94;173357;28;1168;-66
2022/06/09 00:11:35;;;;;;;21.95;6.15;;;;;;;12.70;100.00;100613.56;173311;28;1245;-66
2022/06/09 00:11:46;;;;;;;19.48;6.01;;;;;;;12.65;100.00;100615.56;173304;28;1236;-66
2022/06/09 00:11:53;;;;;;;20.54;6.19;;;;;;;12.61;100.00;100615.78;173352;28;1229;-67
2022/06/09 00:11:59;;;;;;;21.78;6.18;;;;;;;12.66;100.00;100602.41;173246;28;1166;-66
2022/06/09 00:12:06;;;;;;;22.73;6.20;;;;;;;12.70;100.00;100608.34;173360;28;950;-67
2022/06/09 00:12:12;;;;;;;21.45;6.07;;;;;;;12.71;100.00;100610.00;173344;28;915;-67
2022/06/09 00:12:18;;;;;;;21.15;6.03;;;;;;;12.74;100.00;100610.69;173357;28;863;-67
2022/06/09 00:12:25;;;;;;;20.93;6.00;;;;;;;12.77;100.00;100611.44;173352;28;1065;-67
2022/06/09 00:12:31;;;;;;;20.17;5.88;;;;;;;12.72;100.00;100614.31;173345;28;912;-67
2022/06/09 00:12:37;;;;;;;18.10;5.78;;;;;;;12.72;100.00;100614.31;173271;28;962;-67
2022/06/09 00:12:43;;;;;;;20.16;6.10;;;;;;;12.72;100.00;100611.69;172685;28;919;-67
2022/06/09 00:12:48;;;;;;;22.03;6.20;;;;;;;12.76;100.00;100618.44;172691;28;1014;-67
2022/06/09 00:12:54;;;;;;;22.05;6.40;;;;;;;12.73;100.00;100614.22;172673;28;1002;-67
2022/06/09 00:12:59;;;;;;;22.43;6.40;;;;;;;12.72;100.00;100606.47;172679;28;950;-66
2022/06/09 00:13:05;;;;;;;24.08;6.55;;;;;;;12.72;100.00;100606.47;172672;28;1041;-67
2022/06/09 00:13:12;;;;;;;23.73;6.37;;;;;;;12.76;100.00;100615.84;172662;28;1090;-67
2022/06/09 00:13:17;;;;;;;22.78;6.38;;;;;;;12.79;100.00;100613.06;172691;28;982;-66
2022/06/09 00:13:24;;;;;;;22.20;6.28;;;;;;;12.80;100.00;100613.91;172640;28;1113;-66
2022/06/09 00:13:29;;;;;;;21.13;6.23;;;;;;;12.75;100.00;100614.16;172703;28;951;-66
2022/06/09 00:13:35;;;;;;;20.17;6.30;;;;;;;12.77;100.00;100609.69;172667;28;935;-66
2022/06/09 00:13:41;;;;;;;18.97;6.23;;;;;;;12.76;100.00;100613.22;172703;28;923;-67
2022/06/09 00:13:49;;;;;;;19.26;6.18;;;;;;;12.76;100.00;100613.22;172688;28;907;-66
2022/06/09 00:13:54;;;;;;;20.12;6.30;;;;;;;12.80;100.00;100614.72;172669;28;974;-67
2022/06/09 00:13:59;;;;;;;20.42;6.35;;;;;;;12.81;100.00;100616.44;172077;28;859;-66
2022/06/09 00:14:07;;;;;;;22.33;6.40;;;;;;;12.83;100.00;100614.56;172043;28;1030;-66
2022/06/09 00:14:14;;;;;;;21.58;6.47;;;;;;;12.84;100.00;100615.41;172042;28;1148;-67
2022/06/09 00:14:20;;;;;;;20.38;6.40;;;;;;;12.84;100.00;100608.44;172134;28;930;-67
2022/06/09 00:14:27;;;;;;;20.28;6.40;;;;;;;12.86;100.00;100610.94;171993;28;1078;-67
2022/06/09 00:14:32;;;;;;;20.23;6.23;;;;;;;12.86;100.00;100614.41;172061;28;963;-67
2022/06/09 00:14:38;;;;;;;19.67;6.18;;;;;;;12.87;100.00;100613.47;172055;28;947;-67
2022/06/09 00:14:44;;;;;;;20.87;6.50;;;;;;;12.86;100.00;100609.16;172065;28;1065;-66
2022/06/09 00:14:50;;;;;;;21.27;6.50;;;;;;;12.86;100.00;100610.94;172075;28;943;-66
2022/06/09 00:14:57;;;;;;;22.30;6.50;;;;;;;12.87;100.00;100608.22;172081;28;888;-66
2022/06/09 00:15:08;;;;;;;23.00;6.88;;;;;;;12.86;100.00;100614.41;172037;28;978;-66
2022/06/09 00:15:14;;;;;;;22.86;6.80;;;;;;;12.86;100.00;100614.41;172031;28;1237;-66
2022/06/09 00:15:20;;;;;;;21.40;6.60;;;;;;;12.87;100.00;100608.22;172108;28;967;-67
2022/06/09 00:15:28;;;;;;;20.55;6.68;;;;;;;12.88;100.00;100612.56;172065;28;946;-67
2022/06/09 00:15:33;;;;;;;22.00;6.77;;;;;;;12.90;100.00;100609.81;172081;28;880;-67
2022/06/09 00:15:39;;;;;;;22.38;6.82;;;;;;;12.91;100.00;100611.53;173267;28;739;-66
2022/06/09 00:15:44;;;;;;;21.60;6.80;;;;;;;12.88;100.00;100609.94;173343;28;1034;-67
2022/06/09 00:15:50;;;;;;;21.75;7.03;;;;;;;12.81;100.00;100608.59;173392;28;891;-67
2022/06/09 00:15:55;;;;;;;22.33;6.90;;;;;;;12.78;100.00;100611.38;173370;28;856;-67
2022/06/09 00:16:01;;;;;;;20.70;6.65;;;;;;;12.79;100.00;100612.22;173334;28;1037;-67
2022/06/09 00:16:07;;;;;;;22.05;6.60;;;;;;;12.72;100.00;100606.47;173342;28;879;-67
2022/06/09 00:16:14;;;;;;;24.03;6.70;;;;;;;12.75;100.00;100614.16;173360;28;876;-67
2022/06/09 00:16:20;;;;;;;25.68;6.56;;;;;;;12.73;100.00;100609.00;173305;28;1042;-66
2022/06/09 00:16:26;;;;;;;25.10;6.47;;;;;;;12.73;100.00;100613.41;173360;28;910;-67
2022/06/09 00:16:31;;;;;;;26.10;6.43;;;;;;;12.72;100.00;100609.09;173280;28;923;-67
2022/06/09 00:16:38;;;;;;;23.90;6.32;;;;;;;12.73;100.00;100609.00;173359;28;978;-67
2022/06/09 00:16:44;;;;;;;24.20;6.53;;;;;;;12.78;100.00;100614.00;173339;28;911;-67
2022/06/09 00:16:49;;;;;;;25.24;6.58;;;;;;;12.80;100.00;100604.25;173377;28;974;-67
2022/06/09 00:16:56;;;;;;;25.80;6.80;;;;;;;12.81;100.00;100613.81;173342;28;1049;-67
2022/06/09 00:17:01;;;;;;;23.98;6.75;;;;;;;12.80;100.00;100609.50;173337;28;915;-67
2022/06/09 00:17:07;;;;;;;23.42;6.72;;;;;;;12.81;100.00;100611.22;173342;28;1037;-67
2022/06/09 00:17:13;;;;;;;22.33;6.43;;;;;;;12.83;100.00;100609.34;173317;28;879;-67
2022/06/09 00:17:18;;;;;;;21.07;6.37;;;;;;;12.82;100.00;100610.28;173401;28;883;-67
2022/06/09 00:17:24;;;;;;;20.38;6.32;;;;;;;12.82;100.00;100612.88;173383;28;832;-67
2022/06/09 00:17:31;;;;;;;21.70;6.40;;;;;;;12.84;100.00;100611.03;173378;28;1140;-67
2022/06/09 00:17:37;;;;;;;23.08;6.60;;;;;;;12.85;100.00;100609.25;172803;28;970;-67
2022/06/09 00:17:43;;;;;;;23.88;6.97;;;;;;;12.86;100.00;100624.03;172076;28;938;-67
2022/06/09 00:17:49;;;;;;;24.65;7.18;;;;;;;12.83;100.00;100614.56;172111;28;888;-66
2022/06/09 00:17:54;;;;;;;25.35;7.15;;;;;;;12.70;100.00;100606.53;172055;28;987;-66
2022/06/09 00:18:00;;;;;;;24.60;6.80;;;;;;;12.68;100.00;100605.81;172072;28;757;-67
2022/06/09 00:18:06;;;;;;;25.17;6.70;;;;;;;12.69;100.00;100604.03;172061;28;1049;-67
2022/06/09 00:18:11;;;;;;;23.24;6.40;;;;;;;12.69;100.00;100609.28;172037;28;911;-67
2022/06/09 00:18:18;;;;;;;21.47;6.10;;;;;;;12.66;100.00;100609.44;172040;28;904;-67
2022/06/09 00:18:23;;;;;;;19.93;6.03;;;;;;;12.69;100.00;100611.88;172067;28;1061;-66
2022/06/09 00:18:28;;;;;;;20.50;6.27;;;;;;;12.69;100.00;100611.88;172043;28;951;-66
2022/06/09 00:18:34;;;;;;;19.43;6.20;;;;;;;12.71;100.00;100612.63;171994;28;931;-66
2022/06/09 00:18:40;;;;;;;22.30;6.55;;;;;;;12.69;100.00;100617.13;172030;28;1002;-67
2022/06/09 00:18:45;;;;;;;23.98;6.75;;;;;;;12.70;100.00;100609.16;172010;28;1043;-67
2022/06/09 00:18:51;;;;;;;24.40;6.70;;;;;;;12.73;100.00;100616.84;172084;28;915;-67
2022/06/09 00:18:56;;;;;;;24.92;6.70;;;;;;;12.71;100.00;100612.63;172021;28;1004;-67
2022/06/09 00:19:03;;;;;;;25.17;6.73;;;;;;;12.71;100.00;100613.50;172035;28;852;-66
2022/06/09 00:19:10;;;;;;;23.34;6.46;;;;;;;12.76;100.00;100613.22;172033;28;990;-67
2022/06/09 00:19:18;;;;;;;22.60;6.13;;;;;;;12.78;100.00;100613.13;172578;28;1615;-67
2022/06/09 00:19:24;;;;;;;22.17;6.33;;;;;;;12.74;100.00;100615.91;172681;28;965;-67
2022/06/09 00:19:29;;;;;;;21.75;6.22;;;;;;;12.72;100.00;100616.94;172677;28;1050;-66
2022/06/09 00:19:36;;;;;;;21.40;6.27;;;;;;;12.72;100.00;100609.94;172718;28;911;-66
2022/06/09 00:19:42;;;;;;;21.28;6.50;;;;;;;12.74;100.00;100615.91;172669;28;1065;-66
2022/06/09 00:19:48;;;;;;;21.63;6.57;;;;;;;12.76;100.00;100613.22;172687;28;903;-67
2022/06/09 00:19:53;;;;;;;21.88;6.57;;;;;;;12.78;100.00;100615.75;172706;28;1057;-66
2022/06/09 00:19:58;;;;;;;22.47;6.67;;;;;;;12.79;100.00;100615.66;172687;28;847;-66
2022/06/09 00:20:05;;;;;;;23.23;6.83;;;;;;;12.80;100.00;100614.72;172709;28;904;-67
2022/06/09 00:20:13;;;;;;;22.58;6.70;;;;;;;12.82;100.00;100617.28;172706;28;994;-67
2022/06/09 00:20:19;;;;;;;21.87;6.86;;;;;;;12.76;100.00;100618.44;172711;28;1068;-67
2022/06/09 00:20:25;;;;;;;22.20;6.90;;;;;;;12.73;100.00;100614.22;172532;28;1098;-66
2022/06/09 00:20:31;;;;;;;22.87;6.87;;;;;;;12.73;100.00;100616.03;172690;28;1002;-66
2022/06/09 00:20:36;;;;;;;23.08;6.82;;;;;;;12.71;100.00;100615.25;172695;28;840;-67
2022/06/09 00:20:41;;;;;;;24.80;6.90;;;;;;;12.73;100.00;100618.66;172595;28;899;-67
2022/06/09 00:20:47;;;;;;;27.17;6.88;;;;;;;12.76;100.00;100615.84;172669;28;935;-67
2022/06/09 00:20:53;;;;;;;27.83;6.80;;;;;;;12.75;100.00;100612.38;172755;28;899;-67
2022/06/09 00:20:58;;;;;;;26.88;6.80;;;;;;;12.78;100.00;100616.59;172684;28;919;-67
2022/06/09 00:21:03;;;;;;;26.70;6.87;;;;;;;12.78;100.00;100621.84;172610;28;832;-67
2022/06/09 00:21:09;;;;;;;26.20;6.82;;;;;;;12.78;100.00;100616.59;172675;28;923;-67
2022/06/09 00:21:14;;;;;;;24.07;6.73;;;;;;;12.73;100.00;100616.03;172284;28;851;-67
2022/06/09 00:21:22;;;;;;;22.98;6.85;;;;;;;12.67;100.00;100624.22;172066;28;998;-66
2022/06/09 00:21:28;;;;;;;23.88;6.88;;;;;;;12.59;100.00;100620.22;172014;28;974;-66
2022/06/09 00:21:35;;;;;;;23.93;6.83;;;;;;;12.60;100.00;100621.91;172009;28;1054;-67
2022/06/09 00:21:40;;;;;;;23.86;6.72;;;;;;;12.65;100.00;100626.06;172021;28;1097;-66
2022/06/09 00:21:46;;;;;;;25.00;6.78;;;;;;;12.69;100.00;100614.50;172012;28;935;-67
2022/06/09 00:21:51;;;;;;;23.80;6.70;;;;;;;12.70;100.00;100618.81;172061;28;844;-67
2022/06/09 00:21:57;;;;;;;23.10;6.75;;;;;;;12.73;100.00;100619.47;172027;28;923;-67
2022/06/09 00:22:03;;;;;;;23.20;6.83;;;;;;;12.73;100.00;100619.47;171940;28;1000;-67
2022/06/09 00:22:08;;;;;;;25.13;6.95;;;;;;;12.78;100.00;100621.84;172057;28;923;-67
2022/06/09 00:22:14;;;;;;;25.50;6.87;;;;;;;12.77;100.00;100625.41;172076;28;848;-67
2022/06/09 00:22:19;;;;;;;25.02;6.75;;;;;;;12.79;100.00;100620.91;172093;28;939;-67
2022/06/09 00:22:25;;;;;;;25.23;6.70;;;;;;;12.79;100.00;100618.28;172071;28;931;-66
2022/06/09 00:22:30;;;;;;;23.95;6.60;;;;;;;12.75;100.00;100627.25;172041;28;1042;-66
2022/06/09 00:22:35;;;;;;;23.03;6.57;;;;;;;12.76;100.00;100618.44;172053;28;1101;-66
2022/06/09 00:22:41;;;;;;;21.98;6.55;;;;;;;12.75;100.00;100622.00;172078;28;879;-67
2022/06/09 00:22:46;;;;;;;21.73;6.57;;;;;;;12.77;100.00;100620.16;172001;28;915;-67
2022/06/09 00:22:52;;;;;;;22.30;6.53;;;;;;;12.77;100.00;100614.94;173208;28;721;-67
2022/06/09 00:22:57;;;;;;;23.37;6.73;;;;;;;12.78;100.00;100619.22;173335;28;835;-67
2022/06/09 00:23:03;;;;;;;24.08;6.78;;;;;;;12.80;100.00;100613.91;173321;28;1050;-67
2022/06/09 00:23:10;;;;;;;24.93;6.87;;;;;;;12.78;100.00;100613.13;173362;28;831;-67
2022/06/09 00:23:17;;;;;;;25.50;6.88;;;;;;;12.80;100.00;100627.81;173344;28;943;-67
2022/06/09 00:23:23;;;;;;;25.40;6.85;;;;;;;12.82;100.00;100615.50;173295;28;1249;-67
2022/06/09 00:23:29;;;;;;;24.07;6.63;;;;;;;12.81;100.00;100615.59;173324;28;1101;-67
2022/06/09 00:23:35;;;;;;;21.48;6.54;;;;;;;12.83;100.00;100622.44;173334;28;1184;-68
2022/06/09 00:23:40;;;;;;;21.40;6.50;;;;;;;12.84;100.00;100624.13;172555;28;1203;-67
2022/06/09 00:23:46;;;;;;;20.90;6.43;;;;;;;12.84;100.00;100621.53;172655;28;879;-67
2022/06/09 00:23:51;;;;;;;21.33;6.40;;;;;;;12.86;100.00;100619.63;172710;28;935;-67
2022/06/09 00:23:57;;;;;;;22.13;6.47;;;;;;;12.86;100.00;100619.63;172708;28;848;-67
2022/06/09 00:24:05;;;;;;;24.15;6.38;;;;;;;12.85;100.00;100623.19;172695;28;848;-67
2022/06/09 00:24:10;;;;;;;22.77;6.40;;;;;;;12.87;100.00;100615.25;172683;28;883;-67
2022/06/09 00:24:17;;;;;;;22.60;6.47;;;;;;;12.86;100.00;100621.41;172655;28;851;-67
2022/06/09 00:24:23;;;;;;;23.44;6.58;;;;;;;12.86;100.00;100617.03;172703;28;903;-67
2022/06/09 00:24:28;;;;;;;22.92;6.70;;;;;;;12.88;100.00;100622.19;172647;28;1065;-67
2022/06/09 00:24:34;;;;;;;24.00;6.83;;;;;;;12.78;100.00;100611.38;172673;28;915;-67
2022/06/09 00:24:39;;;;;;;25.17;7.00;;;;;;;12.75;100.00;100619.38;172587;28;1576;-67
2022/06/09 00:24:45;;;;;;;27.00;7.15;;;;;;;12.71;100.00;100616.09;172664;28;1022;-67
2022/06/09 00:24:50;;;;;;;25.77;7.10;;;;;;;12.73;100.00;100619.47;172397;28;832;-67
2022/06/09 00:24:57;;;;;;;26.88;7.28;;;;;;;12.74;100.00;100615.91;171950;28;955;-67
2022/06/09 00:25:04;;;;;;;25.67;7.10;;;;;;;12.72;100.00;100622.16;171985;28;934;-67
2022/06/09 00:25:10;;;;;;;23.64;6.92;;;;;;;12.73;100.00;100618.66;171969;28;1140;-67
2022/06/09 00:25:16;;;;;;;22.30;6.74;;;;;;;12.72;100.00;100617.78;171208;28;1125;-67
2022/06/09 00:25:21;;;;;;;21.20;6.73;;;;;;;12.73;100.00;100618.66;171371;28;864;-68
2022/06/09 00:25:27;;;;;;;20.85;6.68;;;;;;;12.75;100.00;100614.16;171338;28;922;-67
2022/06/09 00:25:35;;;;;;;21.20;6.70;;;;;;;12.78;100.00;100618.38;171311;28;895;-66
2022/06/09 00:25:40;;;;;;;23.17;6.80;;;;;;;12.78;100.00;100619.22;171758;28;908;-68
2022/06/09 00:25:46;;;;;;;24.58;6.93;;;;;;;12.77;100.00;100614.94;171994;28;931;-67
2022/06/09 00:25:52;;;;;;;25.67;7.05;;;;;;;12.78;100.00;100621.84;172017;28;1053;-67
2022/06/09 00:25:57;;;;;;;24.93;7.07;;;;;;;12.79;100.00;100617.47;172018;28;919;-67
2022/06/09 00:26:03;;;;;;;24.90;7.10;;;;;;;12.80;100.00;100619.97;172035;28;923;-67
2022/06/09 00:26:09;;;;;;;24.15;7.10;;;;;;;12.81;100.00;100611.22;172007;28;939;-67
2022/06/09 00:26:14;;;;;;;21.53;6.90;;;;;;;12.83;100.00;100619.81;172011;28;947;-68
2022/06/09 00:26:20;;;;;;;19.75;6.57;;;;;;;12.84;100.00;100616.28;172068;28;915;-68
2022/06/09 00:26:25;;;;;;;19.43;6.50;;;;;;;12.85;100.00;100619.72;172013;28;1034;-67
2022/06/09 00:26:31;;;;;;;20.52;6.35;;;;;;;12.85;100.00;100617.97;171998;28;836;-67
2022/06/09 00:26:37;;;;;;;20.03;6.30;;;;;;;12.86;100.00;100614.41;172023;28;959;-67
2022/06/09 00:26:42;;;;;;;22.10;6.43;;;;;;;12.87;100.00;100621.31;171970;28;1206;-67
2022/06/09 00:26:48;;;;;;;24.77;6.70;;;;;;;12.87;100.00;100615.25;171976;28;928;-67
2022/06/09 00:26:53;;;;;;;25.60;6.83;;;;;;;12.86;100.00;100624.88;171979;28;956;-67
2022/06/09 00:26:59;;;;;;;24.45;6.90;;;;;;;12.83;100.00;100625.03;171946;28;1042;-67
2022/06/09 00:27:04;;;;;;;24.58;6.95;;;;;;;12.85;100.00;100617.97;171986;28;943;-67
2022/06/09 00:27:10;;;;;;;23.90;6.97;;;;;;;12.84;100.00;100620.66;172010;28;888;-67
2022/06/09 00:27:15;;;;;;;23.08;6.95;;;;;;;12.85;100.00;100623.19;172009;28;986;-67
2022/06/09 00:27:20;;;;;;;24.77;7.10;;;;;;;12.86;100.00;100619.63;172111;28;828;-67
2022/06/09 00:27:27;;;;;;;24.30;7.00;;;;;;;12.82;100.00;100617.28;172044;28;884;-67
2022/06/09 00:27:32;;;;;;;24.17;6.90;;;;;;;12.80;100.00;100616.53;172075;28;907;-67
2022/06/09 00:27:38;;;;;;;25.40;6.90;;;;;;;12.80;100.00;100614.72;172054;28;1093;-67
2022/06/09 00:27:43;;;;;;;25.77;6.90;;;;;;;12.82;100.00;100620.75;172034;28;852;-67
2022/06/09 00:27:49;;;;;;;22.40;6.80;;;;;;;12.83;100.00;100614.56;171647;28;828;-67
2022/06/09 00:27:54;;;;;;;22.17;6.75;;;;;;;12.83;100.00;100614.56;171086;28;852;-67
2022/06/09 00:27:59;;;;;;;21.70;6.87;;;;;;;12.85;100.00;100617.09;171260;28;939;-67
2022/06/09 00:28:05;;;;;;;22.23;7.37;;;;;;;12.77;100.00;100622.78;172058;28;919;-67
2022/06/09 00:28:11;;;;;;;21.20;7.32;;;;;;;12.76;100.00;100623.69;172036;28;911;-66
2022/06/09 00:28:16;;;;;;;21.35;7.28;;;;;;;12.78;100.00;100621.00;172029;28;824;-66
2022/06/09 00:28:22;;;;;;;23.10;7.37;;;;;;;12.78;100.00;100616.59;172067;28;970;-67
2022/06/09 00:28:28;;;;;;;24.58;7.30;;;;;;;12.81;100.00;100623.44;171943;28;1030;-66
2022/06/09 00:28:34;;;;;;;25.13;7.05;;;;;;;12.83;100.00;100624.22;172023;28;911;-67
2022/06/09 00:28:39;;;;;;;24.42;6.68;;;;;;;12.85;100.00;100622.34;172052;28;886;-67
2022/06/09 00:28:45;;;;;;;24.70;6.53;;;;;;;12.85;100.00;100622.34;172043;28;1025;-67
2022/06/09 00:28:50;;;;;;;24.45;6.60;;;;;;;12.82;100.00;100620.75;172103;28;917;-67
2022/06/09 00:28:56;;;;;;;25.53;6.60;;;;;;;12.80;100.00;100622.59;172039;28;926;-67
2022/06/09 00:29:03;;;;;;;25.20;6.60;;;;;;;12.78;100.00;100616.59;171946;28;1002;-67
2022/06/09 00:29:08;;;;;;;25.60;6.76;;;;;;;12.79;100.00;100618.28;172039;28;1078;-67
2022/06/09 00:29:14;;;;;;;25.83;6.90;;;;;;;12.82;100.00;100622.50;172052;28;922;-67
2022/06/09 00:29:19;;;;;;;26.63;6.90;;;;;;;12.83;100.00;100617.19;172065;28;962;-67
2022/06/09 00:29:25;;;;;;;26.23;7.03;;;;;;;12.84;100.00;100616.28;173241;28;926;-67
2022/06/09 00:29:30;;;;;;;23.97;6.93;;;;;;;12.86;100.00;100624.88;173357;28;777;-67
2022/06/09 00:29:36;;;;;;;23.47;6.90;;;;;;;12.86;100.00;100619.63;173338;28;1041;-67
2022/06/09 00:29:42;;;;;;;22.80;6.88;;;;;;;12.87;100.00;100626.56;173346;28;819;-67
2022/06/09 00:29:47;;;;;;;22.27;6.97;;;;;;;12.89;100.00;100618.63;173347;28;938;-67
2022/06/09 00:29:52;;;;;;;19.17;6.83;;;;;;;12.89;100.00;100616.00;173292;28;898;-67
2022/06/09 00:29:58;;;;;;;19.87;6.77;;;;;;;12.90;100.00;100619.47;173351;28;1037;-67
2022/06/09 00:30:05;;;;;;;20.88;6.80;;;;;;;12.91;100.00;100623.78;173358;28;996;-66
2022/06/09 00:30:14;;;;;;;23.27;6.78;;;;;;;12.90;100.00;100622.09;173342;28;1135;-67
2022/06/09 00:30:19;;;;;;;25.77;6.62;;;;;;;12.76;100.00;100623.69;173190;28;1554;-67
2022/06/09 00:30:25;;;;;;;27.35;6.65;;;;;;;12.69;100.00;100617.13;173347;28;978;-67
2022/06/09 00:30:31;;;;;;;26.67;6.67;;;;;;;12.68;100.00;100625.88;173316;28;1100;-66
2022/06/09 00:30:36;;;;;;;27.30;6.78;;;;;;;12.68;100.00;100612.78;173331;28;1076;-67
2022/06/09 00:30:42;;;;;;;25.53;6.70;;;;;;;12.71;100.00;100620.50;173353;28;1081;-67
2022/06/09 00:30:47;;;;;;;23.75;6.60;;;;;;;12.72;100.00;100616.94;173343;28;1033;-67
2022/06/09 00:30:53;;;;;;;23.27;6.43;;;;;;;12.76;100.00;100621.06;173407;28;1029;-67
2022/06/09 00:30:58;;;;;;;22.20;6.45;;;;;;;12.77;100.00;100620.16;173335;28;855;-67
2022/06/09 00:31:04;;;;;;;23.02;6.43;;;;;;;12.74;100.00;100617.72;173344;28;925;-67
2022/06/09 00:31:09;;;;;;;22.03;6.47;;;;;;;12.70;100.00;100613.56;173318;28;886;-67
2022/06/09 00:31:14;;;;;;;21.63;6.57;;;;;;;12.70;100.00;100619.63;173268;28;1978;-67
2022/06/09 00:31:20;;;;;;;20.95;6.65;;;;;;;12.73;100.00;100619.47;173371;28;990;-67
2022/06/09 00:31:25;;;;;;;21.93;6.83;;;;;;;12.75;100.00;100619.38;172748;28;890;-67
2022/06/09 00:31:31;;;;;;;21.80;6.72;;;;;;;12.77;100.00;100619.31;172637;28;1096;-67
2022/06/09 00:31:36;;;;;;;21.07;6.60;;;;;;;12.79;100.00;100617.47;172672;28;867;-67
2022/06/09 00:31:42;;;;;;;21.50;6.57;;;;;;;12.79;100.00;100618.28;172667;28;895;-67
2022/06/09 00:31:47;;;;;;;22.25;6.47;;;;;;;12.80;100.00;100619.97;172666;28;894;-67
2022/06/09 00:31:52;;;;;;;22.40;6.47;;;;;;;12.81;100.00;100616.44;172186;28;903;-67
2022/06/09 00:31:58;;;;;;;21.73;6.40;;;;;;;12.84;100.00;100625.91;172076;28;824;-67
2022/06/09 00:32:04;;;;;;;21.43;6.53;;;;;;;12.83;100.00;100622.44;172053;28;931;-67
2022/06/09 00:32:09;;;;;;;21.45;6.55;;;;;;;12.81;100.00;100615.59;172051;28;836;-67
2022/06/09 00:32:14;;;;;;;23.23;6.70;;;;;;;12.77;100.00;100621.94;172028;28;978;-67
2022/06/09 00:32:20;;;;;;;24.30;6.82;;;;;;;12.76;100.00;100615.84;172042;28;943;-67
2022/06/09 00:32:26;;;;;;;23.60;6.80;;;;;;;12.72;100.00;100616.94;172041;28;902;-67
2022/06/09 00:32:31;;;;;;;23.03;6.67;;;;;;;12.70;100.00;100621.44;172555;28;1455;-67
2022/06/09 00:32:37;;;;;;;23.65;6.57;;;;;;;12.73;100.00;100619.47;172710;28;906;-66